sensor_id;sensor_type;location;lat;lon;timestamp;P1;durP1;ratioP1;P2;durP2;ratioP2
77117;SDS011;66072;50.238;19.228;2023-06-10T00:01:31;18.80;;;15.00;;
77117;SDS011;66072;50.238;19.228;2023-06-10T00:03:59;20.40;;;14.30;;
77117;SDS011;66072;50.238;19.228;2023-06-10T00:06:27;20.20;;;14.90;;
77117;SDS011;66072;50.238;19.228;2023-06-10T00:08:54;20.50;;;15.10;;
77117;SDS011;66072;50.238;19.228;2023-06-10T00:11:22;21.00;;;14.90;;
77117;SDS011;66072;50.238;19.228;2023-06-10T00:13:50;22.10;;;15.60;;
77117;SDS011;66072;50.238;19.228;2023-06-10T00:16:17;22.30;;;15.60;;
77117;SDS011;66072;50.238;19.228;2023-06-10T00:18:45;23.10;;;15.50;;
77117;SDS011;66072;50.238;19.228;2023-06-10T00:21:13;22.50;;;16.50;;
77117;SDS011;66072;50.238;19.228;2023-06-10T00:23:40;20.40;;;15.40;;
77117;SDS011;66072;50.238;19.228;2023-06-10T00:26:08;19.00;;;14.40;;
77117;SDS011;66072;50.238;19.228;2023-06-10T00:28:36;23.80;;;15.90;;
77117;SDS011;66072;50.238;19.228;2023-06-10T00:31:04;20.30;;;14.20;;
77117;SDS011;66072;50.238;19.228;2023-06-10T00:33:31;22.10;;;16.40;;
77117;SDS011;66072;50.238;19.228;2023-06-10T00:35:59;22.20;;;16.30;;
77117;SDS011;66072;50.238;19.228;2023-06-10T00:38:26;20.60;;;15.90;;
77117;SDS011;66072;50.238;19.228;2023-06-10T00:40:54;20.70;;;15.10;;
77117;SDS011;66072;50.238;19.228;2023-06-10T00:43:24;22.80;;;15.90;;
77117;SDS011;66072;50.238;19.228;2023-06-10T00:45:51;23.30;;;16.50;;
77117;SDS011;66072;50.238;19.228;2023-06-10T00:48:19;19.90;;;14.70;;
77117;SDS011;66072;50.238;19.228;2023-06-10T00:50:47;20.10;;;14.60;;
77117;SDS011;66072;50.238;19.228;2023-06-10T00:53:15;21.90;;;17.00;;
77117;SDS011;66072;50.238;19.228;2023-06-10T00:55:43;20.00;;;15.30;;
77117;SDS011;66072;50.238;19.228;2023-06-10T00:58:12;19.90;;;15.40;;
77117;SDS011;66072;50.238;19.228;2023-06-10T01:00:40;21.60;;;16.60;;
77117;SDS011;66072;50.238;19.228;2023-06-10T01:03:08;22.60;;;16.40;;
77117;SDS011;66072;50.238;19.228;2023-06-10T01:05:36;22.30;;;16.60;;
77117;SDS011;66072;50.238;19.228;2023-06-10T01:10:53;21.80;;;15.50;;
77117;SDS011;66072;50.238;19.228;2023-06-10T01:13:24;23.20;;;17.20;;
77117;SDS011;66072;50.238;19.228;2023-06-10T01:15:53;22.10;;;16.30;;
77117;SDS011;66072;50.238;19.228;2023-06-10T01:18:31;19.80;;;15.80;;
77117;SDS011;66072;50.238;19.228;2023-06-10T01:20:59;21.40;;;16.70;;
77117;SDS011;66072;50.238;19.228;2023-06-10T01:23:26;24.20;;;17.40;;
77117;SDS011;66072;50.238;19.228;2023-06-10T01:26:03;22.90;;;16.90;;
77117;SDS011;66072;50.238;19.228;2023-06-10T01:28:39;23.90;;;18.60;;
77117;SDS011;66072;50.238;19.228;2023-06-10T01:33:47;23.20;;;17.60;;
77117;SDS011;66072;50.238;19.228;2023-06-10T01:36:19;23.50;;;17.60;;
77117;SDS011;66072;50.238;19.228;2023-06-10T01:38:49;23.10;;;18.00;;
77117;SDS011;66072;50.238;19.228;2023-06-10T01:41:17;25.10;;;18.10;;
77117;SDS011;66072;50.238;19.228;2023-06-10T01:43:45;27.70;;;17.00;;
77117;SDS011;66072;50.238;19.228;2023-06-10T01:46:14;24.40;;;18.00;;
77117;SDS011;66072;50.238;19.228;2023-06-10T01:48:44;23.10;;;18.20;;
77117;SDS011;66072;50.238;19.228;2023-06-10T01:51:11;24.40;;;17.60;;
77117;SDS011;66072;50.238;19.228;2023-06-10T01:53:39;23.40;;;17.80;;
77117;SDS011;66072;50.238;19.228;2023-06-10T01:56:09;24.80;;;19.00;;
77117;SDS011;66072;50.238;19.228;2023-06-10T01:58:37;24.50;;;18.20;;
77117;SDS011;66072;50.238;19.228;2023-06-10T02:01:04;23.40;;;17.20;;
77117;SDS011;66072;50.238;19.228;2023-06-10T02:03:32;25.70;;;18.80;;
77117;SDS011;66072;50.238;19.228;2023-06-10T02:06:00;24.30;;;18.40;;
77117;SDS011;66072;50.238;19.228;2023-06-10T02:08:27;25.10;;;19.10;;
77117;SDS011;66072;50.238;19.228;2023-06-10T02:10:55;24.20;;;19.00;;
77117;SDS011;66072;50.238;19.228;2023-06-10T02:13:22;26.70;;;19.10;;
77117;SDS011;66072;50.238;19.228;2023-06-10T02:15:50;24.90;;;19.30;;
77117;SDS011;66072;50.238;19.228;2023-06-10T02:18:18;26.10;;;20.30;;
77117;SDS011;66072;50.238;19.228;2023-06-10T02:20:45;30.10;;;20.90;;
77117;SDS011;66072;50.238;19.228;2023-06-10T02:23:13;29.20;;;20.30;;
77117;SDS011;66072;50.238;19.228;2023-06-10T02:25:41;26.50;;;19.50;;
77117;SDS011;66072;50.238;19.228;2023-06-10T02:28:09;28.90;;;20.20;;
77117;SDS011;66072;50.238;19.228;2023-06-10T02:30:39;28.20;;;21.00;;
77117;SDS011;66072;50.238;19.228;2023-06-10T02:33:08;28.00;;;20.50;;
77117;SDS011;66072;50.238;19.228;2023-06-10T02:35:38;28.10;;;19.80;;
77117;SDS011;66072;50.238;19.228;2023-06-10T02:38:07;27.80;;;20.90;;
77117;SDS011;66072;50.238;19.228;2023-06-10T02:40:34;29.10;;;20.80;;
77117;SDS011;66072;50.238;19.228;2023-06-10T02:43:02;27.60;;;20.00;;
77117;SDS011;66072;50.238;19.228;2023-06-10T02:45:30;27.90;;;20.30;;
77117;SDS011;66072;50.238;19.228;2023-06-10T02:47:57;27.30;;;19.40;;
77117;SDS011;66072;50.238;19.228;2023-06-10T02:50:25;27.70;;;19.80;;
77117;SDS011;66072;50.238;19.228;2023-06-10T02:52:53;26.30;;;19.40;;
77117;SDS011;66072;50.238;19.228;2023-06-10T02:55:20;26.40;;;19.20;;
77117;SDS011;66072;50.238;19.228;2023-06-10T02:57:48;26.40;;;20.10;;
77117;SDS011;66072;50.238;19.228;2023-06-10T03:00:16;25.50;;;19.70;;
77117;SDS011;66072;50.238;19.228;2023-06-10T03:02:43;23.90;;;19.50;;
77117;SDS011;66072;50.238;19.228;2023-06-10T03:05:11;25.40;;;18.50;;
77117;SDS011;66072;50.238;19.228;2023-06-10T03:07:39;25.20;;;18.70;;
77117;SDS011;66072;50.238;19.228;2023-06-10T03:10:07;25.40;;;18.90;;
77117;SDS011;66072;50.238;19.228;2023-06-10T03:12:35;25.10;;;18.40;;
77117;SDS011;66072;50.238;19.228;2023-06-10T03:15:02;26.30;;;18.90;;
77117;SDS011;66072;50.238;19.228;2023-06-10T03:17:32;24.20;;;18.60;;
77117;SDS011;66072;50.238;19.228;2023-06-10T03:20:00;23.80;;;19.10;;
77117;SDS011;66072;50.238;19.228;2023-06-10T03:22:27;22.90;;;17.70;;
77117;SDS011;66072;50.238;19.228;2023-06-10T03:24:55;23.30;;;18.30;;
77117;SDS011;66072;50.238;19.228;2023-06-10T03:27:23;25.40;;;18.60;;
77117;SDS011;66072;50.238;19.228;2023-06-10T03:29:50;25.60;;;19.10;;
77117;SDS011;66072;50.238;19.228;2023-06-10T03:32:20;24.50;;;18.10;;
77117;SDS011;66072;50.238;19.228;2023-06-10T03:34:48;23.80;;;17.60;;
77117;SDS011;66072;50.238;19.228;2023-06-10T03:37:16;20.90;;;17.80;;
77117;SDS011;66072;50.238;19.228;2023-06-10T03:39:44;23.00;;;17.20;;
77117;SDS011;66072;50.238;19.228;2023-06-10T03:42:11;24.10;;;17.70;;
77117;SDS011;66072;50.238;19.228;2023-06-10T03:44:39;21.50;;;17.50;;
77117;SDS011;66072;50.238;19.228;2023-06-10T03:47:06;23.30;;;17.60;;
77117;SDS011;66072;50.238;19.228;2023-06-10T03:49:34;24.80;;;17.50;;
77117;SDS011;66072;50.238;19.228;2023-06-10T03:52:02;26.30;;;18.70;;
77117;SDS011;66072;50.238;19.228;2023-06-10T03:54:29;25.00;;;17.80;;
77117;SDS011;66072;50.238;19.228;2023-06-10T03:56:57;23.60;;;17.40;;
77117;SDS011;66072;50.238;19.228;2023-06-10T03:59:25;25.10;;;18.20;;
77117;SDS011;66072;50.238;19.228;2023-06-10T04:01:52;23.90;;;18.20;;
77117;SDS011;66072;50.238;19.228;2023-06-10T04:04:20;24.70;;;19.20;;
77117;SDS011;66072;50.238;19.228;2023-06-10T04:06:48;23.80;;;17.50;;
77117;SDS011;66072;50.238;19.228;2023-06-10T04:09:15;23.00;;;17.70;;
77117;SDS011;66072;50.238;19.228;2023-06-10T04:11:43;20.60;;;17.10;;
77117;SDS011;66072;50.238;19.228;2023-06-10T04:14:10;21.20;;;16.40;;
77117;SDS011;66072;50.238;19.228;2023-06-10T04:16:38;21.50;;;16.30;;
77117;SDS011;66072;50.238;19.228;2023-06-10T04:19:06;20.90;;;15.80;;
77117;SDS011;66072;50.238;19.228;2023-06-10T04:21:33;21.30;;;16.40;;
77117;SDS011;66072;50.238;19.228;2023-06-10T04:24:04;21.00;;;16.30;;
77117;SDS011;66072;50.238;19.228;2023-06-10T04:26:32;20.30;;;15.90;;
77117;SDS011;66072;50.238;19.228;2023-06-10T04:28:59;20.60;;;16.00;;
77117;SDS011;66072;50.238;19.228;2023-06-10T04:31:27;18.30;;;15.40;;
77117;SDS011;66072;50.238;19.228;2023-06-10T04:33:55;19.60;;;14.70;;
77117;SDS011;66072;50.238;19.228;2023-06-10T04:36:22;18.30;;;15.20;;
77117;SDS011;66072;50.238;19.228;2023-06-10T04:38:50;20.20;;;14.00;;
77117;SDS011;66072;50.238;19.228;2023-06-10T04:41:18;17.40;;;14.80;;
77117;SDS011;66072;50.238;19.228;2023-06-10T04:43:45;17.60;;;14.10;;
77117;SDS011;66072;50.238;19.228;2023-06-10T04:46:13;16.80;;;13.70;;
77117;SDS011;66072;50.238;19.228;2023-06-10T04:48:41;16.20;;;13.60;;
77117;SDS011;66072;50.238;19.228;2023-06-10T04:51:08;16.60;;;12.90;;
77117;SDS011;66072;50.238;19.228;2023-06-10T04:53:36;15.50;;;12.80;;
77117;SDS011;66072;50.238;19.228;2023-06-10T04:56:04;14.70;;;12.10;;
77117;SDS011;66072;50.238;19.228;2023-06-10T04:58:31;15.90;;;12.80;;
77117;SDS011;66072;50.238;19.228;2023-06-10T05:00:59;14.10;;;11.80;;
77117;SDS011;66072;50.238;19.228;2023-06-10T05:03:27;13.90;;;11.50;;
77117;SDS011;66072;50.238;19.228;2023-06-10T05:05:54;16.50;;;11.60;;
77117;SDS011;66072;50.238;19.228;2023-06-10T05:08:22;13.50;;;12.00;;
77117;SDS011;66072;50.238;19.228;2023-06-10T05:10:50;12.90;;;10.60;;
77117;SDS011;66072;50.238;19.228;2023-06-10T05:13:20;12.30;;;10.90;;
77117;SDS011;66072;50.238;19.228;2023-06-10T05:15:48;12.60;;;10.60;;
77117;SDS011;66072;50.238;19.228;2023-06-10T05:18:16;13.90;;;10.50;;
77117;SDS011;66072;50.238;19.228;2023-06-10T05:20:43;11.90;;;10.70;;
77117;SDS011;66072;50.238;19.228;2023-06-10T05:23:11;13.00;;;10.30;;
77117;SDS011;66072;50.238;19.228;2023-06-10T05:25:38;13.40;;;10.00;;
77117;SDS011;66072;50.238;19.228;2023-06-10T05:28:06;10.70;;;9.00;;
77117;SDS011;66072;50.238;19.228;2023-06-10T05:30:34;11.60;;;9.30;;
77117;SDS011;66072;50.238;19.228;2023-06-10T05:33:02;12.00;;;10.00;;
77117;SDS011;66072;50.238;19.228;2023-06-10T05:35:31;13.20;;;10.40;;
77117;SDS011;66072;50.238;19.228;2023-06-10T05:37:58;11.80;;;9.40;;
77117;SDS011;66072;50.238;19.228;2023-06-10T05:40:30;12.80;;;10.30;;
77117;SDS011;66072;50.238;19.228;2023-06-10T05:42:57;10.80;;;9.20;;
77117;SDS011;66072;50.238;19.228;2023-06-10T05:45:25;11.60;;;9.60;;
77117;SDS011;66072;50.238;19.228;2023-06-10T05:47:53;11.30;;;10.10;;
77117;SDS011;66072;50.238;19.228;2023-06-10T05:50:20;13.10;;;9.80;;
77117;SDS011;66072;50.238;19.228;2023-06-10T05:52:48;14.50;;;9.80;;
77117;SDS011;66072;50.238;19.228;2023-06-10T05:55:16;11.60;;;9.50;;
77117;SDS011;66072;50.238;19.228;2023-06-10T05:57:43;11.50;;;9.90;;
77117;SDS011;66072;50.238;19.228;2023-06-10T06:00:11;11.70;;;10.20;;
77117;SDS011;66072;50.238;19.228;2023-06-10T06:02:39;12.10;;;10.50;;
77117;SDS011;66072;50.238;19.228;2023-06-10T06:05:07;14.80;;;10.80;;
77117;SDS011;66072;50.238;19.228;2023-06-10T06:07:35;14.40;;;11.00;;
77117;SDS011;66072;50.238;19.228;2023-06-10T06:10:03;13.20;;;10.40;;
77117;SDS011;66072;50.238;19.228;2023-06-10T06:12:31;12.80;;;10.40;;
77117;SDS011;66072;50.238;19.228;2023-06-10T06:14:59;12.40;;;10.00;;
77117;SDS011;66072;50.238;19.228;2023-06-10T06:17:26;12.40;;;9.60;;
77117;SDS011;66072;50.238;19.228;2023-06-10T06:19:54;13.30;;;10.90;;
77117;SDS011;66072;50.238;19.228;2023-06-10T06:22:22;11.60;;;9.70;;
77117;SDS011;66072;50.238;19.228;2023-06-10T06:24:50;12.20;;;11.00;;
77117;SDS011;66072;50.238;19.228;2023-06-10T06:27:17;13.00;;;10.90;;
77117;SDS011;66072;50.238;19.228;2023-06-10T06:29:45;12.40;;;10.60;;
77117;SDS011;66072;50.238;19.228;2023-06-10T06:32:13;12.80;;;10.10;;
77117;SDS011;66072;50.238;19.228;2023-06-10T06:34:41;13.00;;;10.80;;
77117;SDS011;66072;50.238;19.228;2023-06-10T06:37:08;12.00;;;9.70;;
77117;SDS011;66072;50.238;19.228;2023-06-10T06:39:36;11.00;;;9.60;;
77117;SDS011;66072;50.238;19.228;2023-06-10T06:42:04;12.20;;;9.90;;
77117;SDS011;66072;50.238;19.228;2023-06-10T06:44:32;12.30;;;10.40;;
77117;SDS011;66072;50.238;19.228;2023-06-10T06:46:59;13.90;;;11.90;;
77117;SDS011;66072;50.238;19.228;2023-06-10T06:49:27;12.20;;;10.20;;
77117;SDS011;66072;50.238;19.228;2023-06-10T06:51:54;11.80;;;9.20;;
77117;SDS011;66072;50.238;19.228;2023-06-10T06:54:22;13.40;;;11.10;;
77117;SDS011;66072;50.238;19.228;2023-06-10T06:56:50;13.80;;;10.20;;
77117;SDS011;66072;50.238;19.228;2023-06-10T06:59:19;11.10;;;9.80;;
77117;SDS011;66072;50.238;19.228;2023-06-10T07:01:47;14.20;;;10.00;;
77117;SDS011;66072;50.238;19.228;2023-06-10T07:04:15;13.00;;;11.00;;
77117;SDS011;66072;50.238;19.228;2023-06-10T07:06:43;11.80;;;10.30;;
77117;SDS011;66072;50.238;19.228;2023-06-10T07:09:11;11.50;;;9.80;;
77117;SDS011;66072;50.238;19.228;2023-06-10T07:11:38;13.40;;;10.80;;
77117;SDS011;66072;50.238;19.228;2023-06-10T07:14:06;11.70;;;9.90;;
77117;SDS011;66072;50.238;19.228;2023-06-10T07:16:35;13.10;;;10.10;;
77117;SDS011;66072;50.238;19.228;2023-06-10T07:19:02;11.40;;;10.20;;
77117;SDS011;66072;50.238;19.228;2023-06-10T07:21:35;10.70;;;9.10;;
77117;SDS011;66072;50.238;19.228;2023-06-10T07:24:03;9.90;;;8.90;;
77117;SDS011;66072;50.238;19.228;2023-06-10T07:26:31;10.70;;;9.50;;
77117;SDS011;66072;50.238;19.228;2023-06-10T07:28:58;11.60;;;9.20;;
77117;SDS011;66072;50.238;19.228;2023-06-10T07:31:26;11.10;;;9.70;;
77117;SDS011;66072;50.238;19.228;2023-06-10T07:33:54;10.40;;;9.40;;
77117;SDS011;66072;50.238;19.228;2023-06-10T07:36:21;8.90;;;8.00;;
77117;SDS011;66072;50.238;19.228;2023-06-10T07:38:49;9.30;;;8.30;;
77117;SDS011;66072;50.238;19.228;2023-06-10T07:41:17;9.00;;;8.00;;
77117;SDS011;66072;50.238;19.228;2023-06-10T07:43:46;9.40;;;8.50;;
77117;SDS011;66072;50.238;19.228;2023-06-10T07:46:14;9.20;;;8.30;;
77117;SDS011;66072;50.238;19.228;2023-06-10T07:48:41;8.40;;;7.50;;
77117;SDS011;66072;50.238;19.228;2023-06-10T07:51:09;8.50;;;7.50;;
77117;SDS011;66072;50.238;19.228;2023-06-10T07:53:37;8.40;;;7.60;;
77117;SDS011;66072;50.238;19.228;2023-06-10T07:56:05;8.70;;;7.30;;
77117;SDS011;66072;50.238;19.228;2023-06-10T07:58:32;10.10;;;7.90;;
77117;SDS011;66072;50.238;19.228;2023-06-10T08:01:00;8.10;;;7.20;;
77117;SDS011;66072;50.238;19.228;2023-06-10T08:03:28;7.70;;;6.80;;
77117;SDS011;66072;50.238;19.228;2023-06-10T08:05:56;9.00;;;7.30;;
77117;SDS011;66072;50.238;19.228;2023-06-10T08:08:24;8.20;;;7.10;;
77117;SDS011;66072;50.238;19.228;2023-06-10T08:10:52;7.70;;;6.90;;
77117;SDS011;66072;50.238;19.228;2023-06-10T08:13:20;8.10;;;7.20;;
77117;SDS011;66072;50.238;19.228;2023-06-10T08:15:47;8.70;;;7.80;;
77117;SDS011;66072;50.238;19.228;2023-06-10T08:18:15;8.50;;;7.10;;
77117;SDS011;66072;50.238;19.228;2023-06-10T08:20:43;7.50;;;6.80;;
77117;SDS011;66072;50.238;19.228;2023-06-10T08:23:11;7.00;;;5.90;;
77117;SDS011;66072;50.238;19.228;2023-06-10T08:25:39;8.10;;;7.30;;
77117;SDS011;66072;50.238;19.228;2023-06-10T08:28:07;10.60;;;7.70;;
77117;SDS011;66072;50.238;19.228;2023-06-10T08:30:34;9.30;;;7.60;;
77117;SDS011;66072;50.238;19.228;2023-06-10T08:33:02;8.10;;;6.90;;
77117;SDS011;66072;50.238;19.228;2023-06-10T08:35:30;8.00;;;6.60;;
77117;SDS011;66072;50.238;19.228;2023-06-10T08:37:58;9.60;;;6.90;;
77117;SDS011;66072;50.238;19.228;2023-06-10T08:40:29;7.40;;;6.60;;
77117;SDS011;66072;50.238;19.228;2023-06-10T08:43:10;9.00;;;6.70;;
77117;SDS011;66072;50.238;19.228;2023-06-10T08:45:47;6.90;;;6.20;;
77117;SDS011;66072;50.238;19.228;2023-06-10T08:48:16;8.00;;;6.90;;
77117;SDS011;66072;50.238;19.228;2023-06-10T08:50:46;8.80;;;6.70;;
77117;SDS011;66072;50.238;19.228;2023-06-10T08:53:17;9.50;;;7.10;;
77117;SDS011;66072;50.238;19.228;2023-06-10T08:55:48;7.80;;;6.50;;
77117;SDS011;66072;50.238;19.228;2023-06-10T08:58:19;7.60;;;6.70;;
77117;SDS011;66072;50.238;19.228;2023-06-10T09:00:51;7.20;;;6.50;;
77117;SDS011;66072;50.238;19.228;2023-06-10T09:03:18;7.80;;;7.00;;
77117;SDS011;66072;50.238;19.228;2023-06-10T09:05:48;7.30;;;5.90;;
77117;SDS011;66072;50.238;19.228;2023-06-10T09:08:15;7.20;;;6.20;;
77117;SDS011;66072;50.238;19.228;2023-06-10T09:10:44;7.80;;;6.60;;
77117;SDS011;66072;50.238;19.228;2023-06-10T09:13:11;7.40;;;6.30;;
77117;SDS011;66072;50.238;19.228;2023-06-10T09:15:40;8.10;;;7.30;;
77117;SDS011;66072;50.238;19.228;2023-06-10T09:18:08;7.30;;;6.60;;
77117;SDS011;66072;50.238;19.228;2023-06-10T09:20:35;7.40;;;6.70;;
77117;SDS011;66072;50.238;19.228;2023-06-10T09:23:04;7.50;;;6.80;;
77117;SDS011;66072;50.238;19.228;2023-06-10T09:25:36;6.90;;;6.10;;
77117;SDS011;66072;50.238;19.228;2023-06-10T09:28:09;6.90;;;6.20;;
77117;SDS011;66072;50.238;19.228;2023-06-10T09:30:42;6.70;;;6.00;;
77117;SDS011;66072;50.238;19.228;2023-06-10T09:33:11;9.00;;;6.40;;
77117;SDS011;66072;50.238;19.228;2023-06-10T09:35:47;6.50;;;5.80;;
77117;SDS011;66072;50.238;19.228;2023-06-10T09:38:21;6.00;;;4.90;;
77117;SDS011;66072;50.238;19.228;2023-06-10T09:40:53;7.10;;;5.30;;
77117;SDS011;66072;50.238;19.228;2023-06-10T09:43:22;6.20;;;5.10;;
77117;SDS011;66072;50.238;19.228;2023-06-10T09:45:50;6.80;;;5.90;;
77117;SDS011;66072;50.238;19.228;2023-06-10T09:48:18;5.30;;;4.60;;
77117;SDS011;66072;50.238;19.228;2023-06-10T09:50:48;6.20;;;4.80;;
77117;SDS011;66072;50.238;19.228;2023-06-10T09:53:16;7.50;;;5.50;;
77117;SDS011;66072;50.238;19.228;2023-06-10T09:55:44;5.80;;;5.20;;
77117;SDS011;66072;50.238;19.228;2023-06-10T09:58:14;6.70;;;5.40;;
77117;SDS011;66072;50.238;19.228;2023-06-10T10:00:42;6.20;;;5.30;;
77117;SDS011;66072;50.238;19.228;2023-06-10T10:03:09;5.90;;;4.70;;
77117;SDS011;66072;50.238;19.228;2023-06-10T10:15:32;5.60;;;4.20;;
77117;SDS011;66072;50.238;19.228;2023-06-10T10:20:37;5.40;;;4.10;;
77117;SDS011;66072;50.238;19.228;2023-06-10T10:23:20;5.30;;;3.90;;
77117;SDS011;66072;50.238;19.228;2023-06-10T10:25:56;5.00;;;3.90;;
77117;SDS011;66072;50.238;19.228;2023-06-10T10:28:31;5.50;;;3.30;;
77117;SDS011;66072;50.238;19.228;2023-06-10T10:31:13;5.50;;;4.10;;
77117;SDS011;66072;50.238;19.228;2023-06-10T10:33:48;5.20;;;3.90;;
77117;SDS011;66072;50.238;19.228;2023-06-10T10:36:21;4.60;;;4.00;;
77117;SDS011;66072;50.238;19.228;2023-06-10T10:38:50;6.40;;;4.30;;
77117;SDS011;66072;50.238;19.228;2023-06-10T10:41:20;5.90;;;3.90;;
77117;SDS011;66072;50.238;19.228;2023-06-10T10:43:51;5.30;;;4.20;;
77117;SDS011;66072;50.238;19.228;2023-06-10T10:46:20;4.40;;;3.60;;
77117;SDS011;66072;50.238;19.228;2023-06-10T10:48:53;5.10;;;3.90;;
77117;SDS011;66072;50.238;19.228;2023-06-10T10:51:23;4.70;;;3.60;;
77117;SDS011;66072;50.238;19.228;2023-06-10T10:54:11;4.70;;;3.10;;
77117;SDS011;66072;50.238;19.228;2023-06-10T10:57:30;4.40;;;3.20;;
77117;SDS011;66072;50.238;19.228;2023-06-10T11:02:16;4.30;;;3.00;;
77117;SDS011;66072;50.238;19.228;2023-06-10T11:04:47;4.50;;;2.80;;
77117;SDS011;66072;50.238;19.228;2023-06-10T11:07:19;4.20;;;2.60;;
77117;SDS011;66072;50.238;19.228;2023-06-10T11:10:07;4.30;;;3.20;;
77117;SDS011;66072;50.238;19.228;2023-06-10T11:15:17;3.60;;;2.60;;
77117;SDS011;66072;50.238;19.228;2023-06-10T11:20:45;4.80;;;2.70;;
77117;SDS011;66072;50.238;19.228;2023-06-10T11:31:22;3.40;;;2.50;;
77117;SDS011;66072;50.238;19.228;2023-06-10T11:33:54;4.10;;;2.90;;
77117;SDS011;66072;50.238;19.228;2023-06-10T11:36:27;4.30;;;2.90;;
77117;SDS011;66072;50.238;19.228;2023-06-10T11:38:56;3.50;;;2.60;;
77117;SDS011;66072;50.238;19.228;2023-06-10T11:41:26;4.10;;;2.80;;
77117;SDS011;66072;50.238;19.228;2023-06-10T11:43:54;5.20;;;2.90;;
77117;SDS011;66072;50.238;19.228;2023-06-10T11:46:23;4.60;;;2.60;;
77117;SDS011;66072;50.238;19.228;2023-06-10T11:48:51;3.70;;;2.70;;
77117;SDS011;66072;50.238;19.228;2023-06-10T11:51:20;4.00;;;2.80;;
77117;SDS011;66072;50.238;19.228;2023-06-10T11:53:48;3.90;;;3.00;;
77117;SDS011;66072;50.238;19.228;2023-06-10T11:56:23;3.30;;;2.40;;
77117;SDS011;66072;50.238;19.228;2023-06-10T11:59:02;4.60;;;2.50;;
77117;SDS011;66072;50.238;19.228;2023-06-10T12:01:32;4.00;;;2.60;;
77117;SDS011;66072;50.238;19.228;2023-06-10T12:04:04;3.50;;;2.50;;
77117;SDS011;66072;50.238;19.228;2023-06-10T12:06:49;5.00;;;2.80;;
77117;SDS011;66072;50.238;19.228;2023-06-10T12:09:19;3.60;;;2.50;;
77117;SDS011;66072;50.238;19.228;2023-06-10T12:11:55;4.70;;;2.40;;
77117;SDS011;66072;50.238;19.228;2023-06-10T12:22:41;3.80;;;2.40;;
77117;SDS011;66072;50.238;19.228;2023-06-10T12:25:10;3.40;;;2.40;;
77117;SDS011;66072;50.238;19.228;2023-06-10T12:27:40;4.20;;;2.60;;
77117;SDS011;66072;50.238;19.228;2023-06-10T12:30:20;3.10;;;2.30;;
77117;SDS011;66072;50.238;19.228;2023-06-10T12:32:49;4.20;;;2.40;;
77117;SDS011;66072;50.238;19.228;2023-06-10T12:35:18;4.50;;;2.30;;
77117;SDS011;66072;50.238;19.228;2023-06-10T12:38:01;3.70;;;2.10;;
77117;SDS011;66072;50.238;19.228;2023-06-10T12:40:31;3.30;;;2.20;;
77117;SDS011;66072;50.238;19.228;2023-06-10T12:43:00;3.70;;;2.60;;
77117;SDS011;66072;50.238;19.228;2023-06-10T12:45:35;5.20;;;2.70;;
77117;SDS011;66072;50.238;19.228;2023-06-10T12:48:11;3.40;;;2.60;;
77117;SDS011;66072;50.238;19.228;2023-06-10T12:50:54;3.60;;;2.70;;
77117;SDS011;66072;50.238;19.228;2023-06-10T12:53:23;3.40;;;2.40;;
77117;SDS011;66072;50.238;19.228;2023-06-10T12:55:54;4.30;;;2.80;;
77117;SDS011;66072;50.238;19.228;2023-06-10T12:58:22;4.10;;;2.70;;
77117;SDS011;66072;50.238;19.228;2023-06-10T13:03:18;4.70;;;3.00;;
77117;SDS011;66072;50.238;19.228;2023-06-10T13:05:46;3.50;;;2.80;;
77117;SDS011;66072;50.238;19.228;2023-06-10T13:08:13;5.10;;;2.90;;
77117;SDS011;66072;50.238;19.228;2023-06-10T13:10:41;4.90;;;2.80;;
77117;SDS011;66072;50.238;19.228;2023-06-10T13:13:09;5.10;;;2.80;;
77117;SDS011;66072;50.238;19.228;2023-06-10T13:15:37;4.10;;;2.70;;
77117;SDS011;66072;50.238;19.228;2023-06-10T13:18:10;4.00;;;2.90;;
77117;SDS011;66072;50.238;19.228;2023-06-10T13:20:38;3.80;;;3.00;;
77117;SDS011;66072;50.238;19.228;2023-06-10T13:23:06;4.10;;;2.80;;
77117;SDS011;66072;50.238;19.228;2023-06-10T13:25:34;3.60;;;2.90;;
77117;SDS011;66072;50.238;19.228;2023-06-10T13:28:02;4.20;;;3.20;;
77117;SDS011;66072;50.238;19.228;2023-06-10T13:30:30;3.40;;;3.00;;
77117;SDS011;66072;50.238;19.228;2023-06-10T13:32:57;3.50;;;2.60;;
77117;SDS011;66072;50.238;19.228;2023-06-10T13:35:25;3.70;;;2.70;;
77117;SDS011;66072;50.238;19.228;2023-06-10T13:37:53;3.60;;;2.50;;
77117;SDS011;66072;50.238;19.228;2023-06-10T13:40:21;3.80;;;2.90;;
77117;SDS011;66072;50.238;19.228;2023-06-10T13:42:50;3.40;;;2.90;;
77117;SDS011;66072;50.238;19.228;2023-06-10T13:45:18;3.50;;;2.50;;
77117;SDS011;66072;50.238;19.228;2023-06-10T13:47:46;3.20;;;2.40;;
77117;SDS011;66072;50.238;19.228;2023-06-10T13:50:14;3.30;;;2.40;;
77117;SDS011;66072;50.238;19.228;2023-06-10T13:52:42;3.60;;;2.30;;
77117;SDS011;66072;50.238;19.228;2023-06-10T13:55:09;4.30;;;2.50;;
77117;SDS011;66072;50.238;19.228;2023-06-10T13:57:37;3.20;;;2.20;;
77117;SDS011;66072;50.238;19.228;2023-06-10T14:00:05;2.90;;;2.20;;
77117;SDS011;66072;50.238;19.228;2023-06-10T14:02:33;4.30;;;2.30;;
77117;SDS011;66072;50.238;19.228;2023-06-10T14:05:01;3.60;;;2.20;;
77117;SDS011;66072;50.238;19.228;2023-06-10T14:07:29;3.10;;;2.40;;
77117;SDS011;66072;50.238;19.228;2023-06-10T14:09:57;3.50;;;2.50;;
77117;SDS011;66072;50.238;19.228;2023-06-10T14:12:24;5.70;;;3.00;;
77117;SDS011;66072;50.238;19.228;2023-06-10T14:14:52;3.70;;;2.70;;
77117;SDS011;66072;50.238;19.228;2023-06-10T14:17:20;3.80;;;2.70;;
77117;SDS011;66072;50.238;19.228;2023-06-10T14:19:49;5.10;;;3.20;;
77117;SDS011;66072;50.238;19.228;2023-06-10T14:22:17;4.30;;;2.90;;
77117;SDS011;66072;50.238;19.228;2023-06-10T14:24:45;5.00;;;3.50;;
77117;SDS011;66072;50.238;19.228;2023-06-10T14:27:13;4.50;;;3.60;;
77117;SDS011;66072;50.238;19.228;2023-06-10T14:29:40;4.90;;;3.30;;
77117;SDS011;66072;50.238;19.228;2023-06-10T14:32:08;3.90;;;3.50;;
77117;SDS011;66072;50.238;19.228;2023-06-10T14:34:36;4.70;;;3.90;;
77117;SDS011;66072;50.238;19.228;2023-06-10T14:37:04;4.10;;;3.70;;
77117;SDS011;66072;50.238;19.228;2023-06-10T14:39:32;4.10;;;3.70;;
77117;SDS011;66072;50.238;19.228;2023-06-10T14:42:00;5.00;;;4.00;;
77117;SDS011;66072;50.238;19.228;2023-06-10T14:44:27;5.90;;;4.10;;
77117;SDS011;66072;50.238;19.228;2023-06-10T14:46:55;6.80;;;5.10;;
77117;SDS011;66072;50.238;19.228;2023-06-10T14:49:22;5.90;;;4.50;;
77117;SDS011;66072;50.238;19.228;2023-06-10T14:51:50;6.50;;;4.40;;
77117;SDS011;66072;50.238;19.228;2023-06-10T14:54:18;6.40;;;4.90;;
77117;SDS011;66072;50.238;19.228;2023-06-10T14:56:45;6.70;;;4.90;;
77117;SDS011;66072;50.238;19.228;2023-06-10T14:59:13;7.30;;;5.90;;
77117;SDS011;66072;50.238;19.228;2023-06-10T15:01:40;9.00;;;6.20;;
77117;SDS011;66072;50.238;19.228;2023-06-10T15:04:08;5.80;;;5.20;;
77117;SDS011;66072;50.238;19.228;2023-06-10T15:06:37;7.50;;;5.30;;
77117;SDS011;66072;50.238;19.228;2023-06-10T15:09:05;7.50;;;6.10;;
77117;SDS011;66072;50.238;19.228;2023-06-10T15:11:32;6.60;;;5.20;;
77117;SDS011;66072;50.238;19.228;2023-06-10T15:14:00;7.90;;;5.90;;
77117;SDS011;66072;50.238;19.228;2023-06-10T15:16:28;8.20;;;5.80;;